»·PEaware :: N265K KOXR-KLAX

N265K :: KOXR-KLAX

FLIGHT INFORMATION

Flight Status: Arrived
Operator: Privately registered:
United States
More flights under this callsign
Pilot: Tytus A. (10113)
Aircraft: CESSNA 210 CENTURION
(C210)
More flights by this aircraft type
Origin: KOXR Oxnard
United States
Destination: KLAX Los Angeles Intl
United States
More flights between these airports :: More routes between these airports
Route: VTU V299 SADDE V107 SMO
File this flight plan on PilotEdge
Remarks: I'll accept a hold if you can work it in
Altitude:
(Current/Filed)
5,000ft
Speed:
(Current/Filed)
160kts
Departed: 28-Apr-20 09:15 PM
Arrived: 28-Apr-20 09:52 PM
Distance/Time
Traveled:
43nm/0:36
Distance/Time
To Go:
Arrived

Flight Plot

Page will automatically refresh every two minutes.


Map Options




Map Legend


Flown Route
Filed Route
Departure Airport
Arrival Airport
Navaid (VOR, NDB)
Fix

Horizontal Profiles

Position Reports

Time Latitude Longitude Heading Altitude Ground
Speed
28-Apr-20 21:01 34.198897 -119.215839 180 46ft 0kts
28-Apr-20 21:02 34.198896 -119.215839 180 46ft 0kts
28-Apr-20 21:03 34.198893 -119.215839 180 46ft 0kts
28-Apr-20 21:04 34.198891 -119.215839 180 46ft 0kts
28-Apr-20 21:05 34.198888 -119.215839 181 46ft 0kts
28-Apr-20 21:06 34.198885 -119.215839 181 46ft 0kts
28-Apr-20 21:06 34.198883 -119.215839 181 46ft 0kts
28-Apr-20 21:08 34.198880 -119.215839 181 46ft 0kts
28-Apr-20 21:09 34.198580 -119.215700 44 46ft 28kts
28-Apr-20 21:09 34.199801 -119.209516 96 46ft 18kts
28-Apr-20 21:10 34.199753 -119.204537 94 46ft 12kts
28-Apr-20 21:12 34.199567 -119.200094 91 46ft 13kts
28-Apr-20 21:12 34.199650 -119.198431 54 46ft 0kts
28-Apr-20 21:13 34.200462 -119.198259 333 46ft 10kts
28-Apr-20 21:14 34.200723 -119.217052 269 332ft 106kts
28-Apr-20 21:15 34.200567 -119.261220 271 1386ft 134kts
28-Apr-20 21:16 34.199713 -119.298832 265 2837ft 133kts
28-Apr-20 21:17 34.187121 -119.341554 195 3604ft 151kts
28-Apr-20 21:18 34.166150 -119.303395 101 4393ft 158kts
28-Apr-20 21:19 34.158438 -119.253821 100 4973ft 146kts
28-Apr-20 21:20 34.147107 -119.203638 104 5003ft 161kts
28-Apr-20 21:21 34.136823 -119.151839 104 5000ft 163kts
28-Apr-20 21:22 34.126165 -119.098432 105 5000ft 163kts
28-Apr-20 21:23 34.114308 -119.045430 106 5000ft 163kts
28-Apr-20 21:24 34.100192 -118.993059 108 5001ft 164kts
28-Apr-20 21:25 34.086334 -118.941030 108 5000ft 160kts
28-Apr-20 21:26 34.072881 -118.890432 108 5006ft 157kts
28-Apr-20 21:27 34.059419 -118.839877 108 4981ft 158kts
28-Apr-20 21:28 34.045872 -118.789716 109 4985ft 157kts
28-Apr-20 21:29 34.036560 -118.738408 96 4988ft 157kts
28-Apr-20 21:30 34.031804 -118.685914 97 4990ft 157kts
28-Apr-20 21:31 34.026939 -118.633336 97 4993ft 157kts
28-Apr-20 21:32 34.022089 -118.580861 97 4996ft 157kts
28-Apr-20 21:33 34.017186 -118.528370 97 4998ft 158kts
28-Apr-20 21:34 34.012107 -118.475552 97 5001ft 158kts
28-Apr-20 21:35 34.008393 -118.423966 82 5009ft 159kts
28-Apr-20 21:36 34.014514 -118.371001 82 4997ft 159kts
28-Apr-20 21:37 34.020588 -118.318233 82 4991ft 158kts
28-Apr-20 21:38 34.026687 -118.265646 82 4992ft 158kts
28-Apr-20 21:39 34.032742 -118.212969 82 4989ft 158kts
28-Apr-20 21:40 34.038802 -118.160307 82 4980ft 158kts
28-Apr-20 21:41 34.044951 -118.107552 82 4967ft 158kts
28-Apr-20 21:42 34.018495 -118.068935 172 3953ft 186kts
28-Apr-20 21:43 33.968562 -118.062284 192 3025ft 181kts
28-Apr-20 21:44 33.957639 -118.111516 272 2926ft 161kts
28-Apr-20 21:45 33.958469 -118.163981 270 2941ft 155kts
28-Apr-20 21:46 33.955706 -118.216287 263 2778ft 147kts
28-Apr-20 21:47 33.949829 -118.260422 261 2210ft 123kts
28-Apr-20 21:48 33.946084 -118.301049 263 1644ft 114kts
28-Apr-20 21:49 33.942040 -118.338771 262 912ft 108kts
28-Apr-20 21:50 33.938702 -118.371435 264 329ft 89kts
28-Apr-20 21:51 33.936399 -118.394249 263 129ft 6kts
28-Apr-20 21:52 33.936132 -118.396765 262 129ft 21kts
28-Apr-20 21:53 33.934938 -118.402094 224 129ft 11kts

Navigation Log

Ident Type
Flight plan parsing failed, navigation log unavailable